Mule Creek, New Mexico
Current Conditions -  °F | °C
As of 1:51 PM on Saturday 20 Dec 2014 (Local Time) from KSAD Reporting Station
Clear Clear  
Wind Chill: 55°   Ceiling: Unl
Heat Index: 55°   Visibility: 10mi
Dew Point: 35°   Wind: 3mph
Humidity: 47%   Direction: 340°NNW
Pressure: 30.1"   Gusts: NA
Location:  33.12°N, 108.96°W
Report Text: KSAD 202051Z AUTO 34003KT 10SM CLR 13/02 A3010 RMK AO2 SLP183 T01280017 58026
Loading
Personal Weather Stations






























Interactive Weather Map New forecast layout! Learn more

10-Day Weather Forecast

Advertisements
Track Severe Weather on mobile